Terminal Aerodrome Forecast
Issued by NWS

Home | Current Version | Previous Version | Text Only | Print | Product List | Glossary On
Versions: 1 2 3 4 5 6 7 8 9 10 11 12 13
000
FTUS41 KBTV 132300
TAFRUT
TAF
KRUT 132324Z 1400/1424 18005KT P6SM VCSH OVC060
     FM140300 VRB03KT 5SM BR BKN015
     FM141200 23007KT P6SM SCT050
      AMD LTD TO CLD VIS AND WIND=

USA.gov is the U.S. government's official web portal to all federal, state and local government web resources and services.